createdAt,value
2019-06-20T00:00:07.278Z,71.40
2019-06-20T00:01:07.272Z,72.66
2019-06-20T00:02:07.277Z,72.85
2019-06-20T00:03:07.278Z,72.66
2019-06-20T00:04:07.281Z,73.01
2019-06-20T00:05:07.283Z,72.95
2019-06-20T00:06:07.289Z,73.01
2019-06-20T00:07:07.293Z,73.59
2019-06-20T00:08:07.298Z,73.88
2019-06-20T00:09:07.335Z,73.88
2019-06-20T00:10:07.298Z,74.46
2019-06-20T00:11:07.303Z,73.72
2019-06-20T00:12:07.321Z,74.46
2019-06-20T00:13:07.306Z,74.65
2019-06-20T00:14:07.309Z,74.65
2019-06-20T00:15:07.314Z,75.43
2019-06-20T00:16:07.326Z,76.20
2019-06-20T00:17:07.319Z,76.87
2019-06-20T00:18:07.326Z,78.42
2019-06-20T00:19:07.323Z,77.84
2019-06-20T00:20:07.327Z,78.61
2019-06-20T00:21:07.328Z,79.93
2019-06-20T00:22:07.334Z,81.87
2019-06-20T00:23:07.336Z,81.87
2019-06-20T00:24:07.338Z,83.80
2019-06-20T00:25:07.340Z,84.24
2019-06-20T00:26:07.344Z,85.98
2019-06-20T00:27:07.345Z,86.17
2019-06-20T00:28:07.361Z,90.71
2019-06-20T00:29:07.356Z,89.31
2019-06-20T00:30:07.353Z,87.58
2019-06-20T00:31:07.359Z,84.24
2019-06-20T00:32:07.357Z,78.92
2019-06-20T00:33:07.360Z,75.78
2019-06-20T00:34:07.365Z,73.04
2019-06-20T00:35:07.369Z,71.78
2019-06-20T00:36:07.370Z,71.14
2019-06-20T00:37:07.373Z,68.73
2019-06-20T00:38:07.378Z,70.79
2019-06-20T00:39:07.387Z,70.79
2019-06-20T00:40:07.381Z,76.08
2019-06-20T00:41:07.388Z,78.99
2019-06-20T00:42:07.385Z,79.72
2019-06-20T00:43:16.861Z,82.97
2019-06-20T00:44:07.394Z,85.48
2019-06-20T00:45:07.393Z,86.41
2019-06-20T00:46:07.413Z,87.91
2019-06-20T00:47:07.401Z,90.42
2019-06-20T00:48:07.410Z,91.00
2019-06-20T00:49:07.408Z,91.92
2019-06-20T00:50:07.407Z,91.35
2019-06-20T00:51:07.412Z,92.69
2019-06-20T00:52:07.436Z,92.07
2019-06-20T00:53:07.416Z,94.10
2019-06-20T00:54:07.463Z,95.64
2019-06-20T00:55:07.423Z,94.68
2019-06-20T00:56:07.419Z,96.41
2019-06-20T00:57:07.430Z,97.47
2019-06-20T00:58:07.426Z,97.19
2019-06-20T00:59:07.427Z,99.93
2019-06-20T01:00:07.431Z,99.65
2019-06-20T01:01:07.434Z,97.62
2019-06-20T01:02:07.446Z,98.87
2019-06-20T01:03:07.440Z,97.24
2019-06-20T01:04:07.442Z,95.98
2019-06-20T01:05:07.445Z,94.38
2019-06-20T01:06:07.453Z,95.93
2019-06-20T01:07:07.449Z,96.12
2019-06-20T01:08:07.452Z,97.42
2019-06-20T01:09:07.451Z,95.88
2019-06-20T01:10:07.455Z,96.36
2019-06-20T01:11:07.453Z,95.79
2019-06-20T01:12:07.457Z,96.94
2019-06-20T01:13:07.460Z,98.20
2019-06-20T01:14:07.465Z,98.58
2019-06-20T01:15:07.463Z,99.30
2019-06-20T01:16:07.468Z,99.40
2019-06-20T01:17:07.468Z,99.98
2019-06-20T01:18:07.468Z,99.99
2019-06-20T01:19:07.468Z,99.02
2019-06-20T01:20:07.479Z,99.88
2019-06-20T01:21:07.475Z,99.11
2019-06-20T01:22:07.475Z,99.99
2019-06-20T01:23:07.475Z,99.98
2019-06-20T01:24:07.482Z,99.99
2019-06-20T01:25:07.484Z,99.99
2019-06-20T01:26:07.483Z,99.99
2019-06-20T01:27:07.484Z,99.99
2019-06-20T01:28:07.489Z,99.99
2019-06-20T01:29:07.484Z,99.99
2019-06-20T01:30:07.492Z,99.99
2019-06-20T01:31:07.488Z,99.99
2019-06-20T01:32:07.490Z,99.99
2019-06-20T01:33:07.498Z,99.99
2019-06-20T01:34:07.495Z,99.99
2019-06-20T01:35:07.495Z,99.99
2019-06-20T01:36:07.494Z,99.99
2019-06-20T01:37:07.499Z,99.99
2019-06-20T01:38:07.497Z,99.99
2019-06-20T01:39:07.504Z,99.99
2019-06-20T01:40:07.500Z,99.99
2019-06-20T01:41:07.503Z,99.99
2019-06-20T01:42:07.504Z,99.99
2019-06-20T01:43:07.506Z,99.99
2019-06-20T01:44:07.510Z,99.99
2019-06-20T01:45:07.512Z,99.99
2019-06-20T01:46:07.509Z,99.99
2019-06-20T01:47:07.515Z,99.99
2019-06-20T01:48:07.510Z,99.99
2019-06-20T01:49:07.519Z,99.99
2019-06-20T01:50:07.517Z,99.99
2019-06-20T01:51:07.517Z,99.99
2019-06-20T01:52:07.516Z,99.99
2019-06-20T01:53:07.518Z,99.99
2019-06-20T01:54:07.520Z,99.99
2019-06-20T01:55:07.521Z,99.99
2019-06-20T01:56:07.520Z,99.99
2019-06-20T01:57:07.524Z,99.99
2019-06-20T01:58:07.525Z,99.99
2019-06-20T01:59:07.524Z,99.99
2019-06-20T02:00:07.533Z,99.99
2019-06-20T02:01:07.527Z,99.99
2019-06-20T02:02:07.532Z,99.99
2019-06-20T02:03:07.528Z,99.99
2019-06-20T02:04:07.559Z,99.99
2019-06-20T02:05:07.530Z,99.99
2019-06-20T02:06:07.539Z,99.99
2019-06-20T02:07:07.602Z,99.99
2019-06-20T02:08:07.532Z,99.99
2019-06-20T02:09:07.575Z,99.99
2019-06-20T02:10:07.537Z,99.99
2019-06-20T02:11:07.539Z,99.99
2019-06-20T02:12:07.577Z,99.99
2019-06-20T02:13:07.537Z,99.99
2019-06-20T02:14:07.768Z,99.99
2019-06-20T02:15:07.550Z,99.99
2019-06-20T02:16:07.541Z,99.99
2019-06-20T02:17:07.552Z,99.99
2019-06-20T02:18:07.542Z,99.99
2019-06-20T02:19:07.548Z,99.99
2019-06-20T02:20:07.545Z,99.99
2019-06-20T02:21:07.547Z,99.99
2019-06-20T02:22:07.554Z,99.99
2019-06-20T02:23:07.548Z,99.99
2019-06-20T02:24:07.546Z,99.99
2019-06-20T02:25:07.586Z,99.99
2019-06-20T02:26:07.557Z,99.99
2019-06-20T02:27:07.563Z,99.99
2019-06-20T02:28:07.552Z,99.99
2019-06-20T02:29:07.559Z,99.99
2019-06-20T02:30:07.554Z,99.99
2019-06-20T02:31:07.561Z,99.99
2019-06-20T02:32:07.572Z,99.99
2019-06-20T02:33:07.554Z,99.99
2019-06-20T02:34:07.557Z,99.99
2019-06-20T02:35:07.573Z,99.99
2019-06-20T02:36:07.587Z,99.99
2019-06-20T02:37:07.566Z,99.99
2019-06-20T02:38:07.668Z,99.99
2019-06-20T02:39:07.559Z,99.99
2019-06-20T02:40:07.558Z,99.99
2019-06-20T02:41:07.561Z,99.99
2019-06-20T02:42:07.564Z,99.99
2019-06-20T02:43:07.565Z,99.99
2019-06-20T02:44:24.795Z,99.99
2019-06-20T02:45:07.567Z,99.99
2019-06-20T02:46:07.566Z,99.99
2019-06-20T02:47:07.567Z,99.99
2019-06-20T02:48:07.568Z,99.99
2019-06-20T02:49:07.568Z,99.99
2019-06-20T02:50:07.569Z,99.99
2019-06-20T02:51:07.572Z,99.99
2019-06-20T02:52:07.571Z,99.99
2019-06-20T02:53:07.571Z,99.99
2019-06-20T02:54:07.572Z,99.99
2019-06-20T02:55:07.573Z,99.99
2019-06-20T02:56:07.572Z,99.99
2019-06-20T02:57:07.575Z,99.99
2019-06-20T02:58:07.575Z,99.99
2019-06-20T02:59:07.577Z,99.99
2019-06-20T03:00:07.586Z,99.99
2019-06-20T03:01:07.577Z,99.99
2019-06-20T03:02:07.651Z,99.99
2019-06-20T03:03:07.597Z,99.99
2019-06-20T03:04:07.576Z,99.99
2019-06-20T03:05:07.583Z,99.99
2019-06-20T03:06:07.585Z,99.99
2019-06-20T03:07:07.580Z,99.99
2019-06-20T03:08:07.581Z,99.99
2019-06-20T03:09:07.592Z,99.99
2019-06-20T03:10:07.583Z,99.99
2019-06-20T03:11:07.586Z,99.99
2019-06-20T03:12:07.585Z,99.99
2019-06-20T03:13:09.524Z,99.99
2019-06-20T03:14:07.586Z,99.99
2019-06-20T03:15:07.585Z,99.99
2019-06-20T03:16:07.599Z,99.99
2019-06-20T03:17:07.588Z,99.99
2019-06-20T03:18:07.589Z,99.99
2019-06-20T03:19:07.591Z,99.99
2019-06-20T03:20:07.590Z,99.99
2019-06-20T03:21:07.590Z,99.99
2019-06-20T03:22:07.597Z,99.99
2019-06-20T03:23:07.595Z,99.99
2019-06-20T03:24:07.631Z,99.99
2019-06-20T03:25:07.604Z,99.99
2019-06-20T03:26:07.602Z,99.99
2019-06-20T03:27:07.596Z,99.99
2019-06-20T03:28:07.598Z,99.99
2019-06-20T03:29:07.600Z,99.99
2019-06-20T03:30:07.602Z,99.99
2019-06-20T03:31:07.599Z,99.99
2019-06-20T03:32:07.608Z,99.99
2019-06-20T03:33:07.609Z,99.99
2019-06-20T03:34:07.606Z,99.99
2019-06-20T03:35:07.611Z,99.99
2019-06-20T03:36:07.611Z,99.99
2019-06-20T03:37:07.608Z,99.99
2019-06-20T03:38:07.608Z,99.99
2019-06-20T03:39:07.608Z,99.99
2019-06-20T03:40:07.610Z,99.99
2019-06-20T03:41:07.639Z,99.99
2019-06-20T03:42:07.611Z,99.99
2019-06-20T03:43:07.607Z,99.99
2019-06-20T03:44:07.676Z,99.99
2019-06-20T03:45:07.616Z,99.99
2019-06-20T03:46:07.620Z,99.99
2019-06-20T03:47:07.618Z,99.99
2019-06-20T03:48:07.616Z,99.99
2019-06-20T03:49:07.622Z,99.99
2019-06-20T03:50:07.617Z,99.99
2019-06-20T03:51:07.711Z,99.99
2019-06-20T03:52:07.622Z,99.99
2019-06-20T03:53:07.624Z,99.99
2019-06-20T03:54:07.621Z,99.99
2019-06-20T03:55:07.626Z,99.99
2019-06-20T03:56:07.634Z,99.99
2019-06-20T03:57:07.627Z,99.99
2019-06-20T03:58:07.628Z,99.99
2019-06-20T03:59:07.632Z,99.99
2019-06-20T04:00:07.635Z,99.99
2019-06-20T04:01:07.635Z,99.99
2019-06-20T04:02:07.632Z,99.99
2019-06-20T04:03:07.635Z,99.99
2019-06-20T04:04:07.630Z,99.99
2019-06-20T04:05:07.638Z,99.99
2019-06-20T04:06:07.635Z,99.99
2019-06-20T04:07:07.640Z,99.99
2019-06-20T04:08:07.643Z,99.99
2019-06-20T04:09:07.643Z,99.99
2019-06-20T04:10:07.647Z,99.99
2019-06-20T04:11:07.644Z,99.65
2019-06-20T04:12:07.650Z,99.17
2019-06-20T04:13:07.647Z,98.44
2019-06-20T04:14:07.646Z,96.80
2019-06-20T04:15:18.438Z,96.80
2019-06-20T04:16:07.663Z,96.06
2019-06-20T04:17:07.659Z,96.36
2019-06-20T04:18:07.659Z,95.19
2019-06-20T04:19:07.669Z,95.00
2019-06-20T04:20:07.706Z,95.29
2019-06-20T04:21:07.663Z,96.36
2019-06-20T04:22:07.667Z,94.51
2019-06-20T04:23:07.671Z,93.54
2019-06-20T04:24:07.673Z,92.86
2019-06-20T04:25:07.682Z,91.06
2019-06-20T04:26:07.737Z,90.62
2019-06-20T04:27:07.677Z,88.87
2019-06-20T04:28:07.687Z,88.62
2019-06-20T04:29:07.682Z,86.82
2019-06-20T04:30:07.688Z,85.31
2019-06-20T04:31:07.774Z,82.58
2019-06-20T04:32:07.695Z,81.41
2019-06-20T04:33:07.708Z,81.57
2019-06-20T04:34:07.699Z,81.51
2019-06-20T04:35:07.704Z,80.87
2019-06-20T04:36:07.724Z,80.43
2019-06-20T04:37:07.708Z,78.87
2019-06-20T04:38:07.737Z,77.25
2019-06-20T04:39:18.632Z,76.61
2019-06-20T04:40:07.726Z,75.24
2019-06-20T04:41:07.722Z,74.60
2019-06-20T04:42:07.727Z,74.17
2019-06-20T04:43:07.730Z,74.17
2019-06-20T04:44:07.737Z,74.72
2019-06-20T04:45:07.737Z,74.91
2019-06-20T04:46:07.744Z,75.97
2019-06-20T04:47:07.757Z,78.20
2019-06-20T04:48:07.752Z,77.76
2019-06-20T04:49:07.761Z,76.24
2019-06-20T04:50:07.760Z,76.08
2019-06-20T04:51:07.769Z,74.46
2019-06-20T04:52:07.767Z,74.56
2019-06-20T04:53:07.778Z,72.94
2019-06-20T04:54:07.774Z,71.77
2019-06-20T04:55:07.778Z,73.29
2019-06-20T04:56:07.782Z,74.58
2019-06-20T04:57:07.789Z,75.42
2019-06-20T04:58:07.797Z,76.50
2019-06-20T04:59:07.797Z,78.01
2019-06-20T05:00:07.798Z,78.20
2019-06-20T05:01:07.807Z,76.78
2019-06-20T05:02:07.815Z,76.30
2019-06-20T05:03:07.814Z,76.50
2019-06-20T05:04:07.830Z,75.40
2019-06-20T05:05:07.823Z,73.62
2019-06-20T05:06:07.826Z,72.19
2019-06-20T05:07:07.833Z,71.55
2019-06-20T05:08:07.836Z,70.86
2019-06-20T05:09:07.839Z,70.41
2019-06-20T05:10:07.846Z,70.25
2019-06-20T05:11:07.852Z,69.11
2019-06-20T05:12:07.856Z,67.54
2019-06-20T05:13:07.863Z,67.71
2019-06-20T05:14:07.873Z,68.42
2019-06-20T05:15:07.884Z,68.36
2019-06-20T05:16:07.878Z,69.63
2019-06-20T05:17:07.883Z,68.59
2019-06-20T05:18:07.894Z,67.15
2019-06-20T05:19:07.895Z,66.37
2019-06-20T05:20:07.932Z,65.62
2019-06-20T05:21:07.910Z,65.66
2019-06-20T05:22:07.908Z,67.32
2019-06-20T05:23:07.919Z,69.82
2019-06-20T05:24:07.919Z,71.01
2019-06-20T05:25:07.935Z,71.95
2019-06-20T05:26:07.935Z,72.50
2019-06-20T05:27:07.940Z,73.54
2019-06-20T05:28:07.946Z,74.96
2019-06-20T05:29:07.952Z,76.18
2019-06-20T05:30:07.954Z,76.87
2019-06-20T05:31:07.962Z,78.03
2019-06-20T05:32:07.967Z,80.23
2019-06-20T05:33:07.979Z,81.59
2019-06-20T05:34:07.990Z,82.03
2019-06-20T05:35:07.989Z,80.44
2019-06-20T05:36:07.997Z,81.85
2019-06-20T05:37:07.995Z,84.43
2019-06-20T05:38:08.011Z,86.82
2019-06-20T05:39:08.003Z,88.07
2019-06-20T05:40:08.022Z,89.92
2019-06-20T05:41:08.015Z,90.73
2019-06-20T05:42:08.021Z,93.54
2019-06-20T05:43:08.023Z,93.54
2019-06-20T05:44:08.024Z,94.81
2019-06-20T05:45:08.033Z,96.75
2019-06-20T05:46:10.663Z,97.13
2019-06-20T05:47:12.481Z,98.15
2019-06-20T05:48:08.047Z,99.94
2019-06-20T05:49:08.048Z,99.99
2019-06-20T05:50:08.073Z,99.99
2019-06-20T05:51:08.063Z,99.99
2019-06-20T05:52:08.066Z,99.99
2019-06-20T05:53:08.073Z,99.99
2019-06-20T05:54:08.072Z,99.99
2019-06-20T05:55:08.081Z,99.99
2019-06-20T05:56:08.602Z,99.99
2019-06-20T05:57:08.086Z,99.99
2019-06-20T05:58:08.091Z,99.99
2019-06-20T05:59:08.285Z,99.99
2019-06-20T06:00:08.354Z,99.99
2019-06-20T06:01:08.113Z,99.99
2019-06-20T06:02:08.111Z,99.99
2019-06-20T06:03:08.111Z,99.99
2019-06-20T06:04:08.950Z,99.99
2019-06-20T06:05:08.119Z,99.99
2019-06-20T06:06:08.134Z,99.99
2019-06-20T06:07:08.127Z,99.99
2019-06-20T06:08:08.128Z,99.99
2019-06-20T06:09:08.136Z,99.99
2019-06-20T06:10:08.138Z,99.99
2019-06-20T06:11:08.139Z,99.99
2019-06-20T06:12:08.143Z,99.99
2019-06-20T06:13:08.152Z,99.99
2019-06-20T06:14:08.154Z,99.99
2019-06-20T06:15:08.153Z,99.99
2019-06-20T06:16:08.174Z,99.99
2019-06-20T06:17:08.167Z,99.99
2019-06-20T06:18:08.166Z,99.99
2019-06-20T06:19:08.169Z,99.99
2019-06-20T06:20:08.174Z,99.99
2019-06-20T06:21:08.174Z,99.99
2019-06-20T06:22:08.176Z,99.99
2019-06-20T06:23:08.184Z,99.99
2019-06-20T06:24:08.189Z,99.99
2019-06-20T06:25:08.201Z,99.99
2019-06-20T06:26:08.199Z,99.99
2019-06-20T06:27:08.199Z,99.99
2019-06-20T06:28:08.209Z,99.99
2019-06-20T06:29:08.205Z,99.99
2019-06-20T06:30:08.219Z,99.99
2019-06-20T06:31:08.211Z,99.99
2019-06-20T06:32:08.216Z,99.99
2019-06-20T06:33:08.217Z,99.99
2019-06-20T06:34:08.222Z,99.99
2019-06-20T06:35:08.224Z,99.99
2019-06-20T06:36:08.222Z,99.99
2019-06-20T06:37:08.237Z,99.99
2019-06-20T06:38:08.230Z,99.99
2019-06-20T06:39:08.238Z,99.99
2019-06-20T06:40:08.243Z,99.99
2019-06-20T06:41:08.243Z,99.99
2019-06-20T06:42:08.254Z,99.99
2019-06-20T06:43:08.318Z,99.99
2019-06-20T06:44:08.558Z,99.99
2019-06-20T06:45:08.255Z,99.99
2019-06-20T06:46:08.258Z,99.99
2019-06-20T06:47:08.258Z,99.99
2019-06-20T06:48:08.264Z,99.99
2019-06-20T06:49:08.271Z,99.99
2019-06-20T06:50:08.271Z,99.99
2019-06-20T06:51:08.273Z,99.99
2019-06-20T06:52:08.277Z,99.99
2019-06-20T06:53:08.279Z,99.99
2019-06-20T06:54:08.284Z,99.99
2019-06-20T06:55:08.285Z,99.99
2019-06-20T06:56:08.283Z,99.99
2019-06-20T06:57:08.290Z,99.99
2019-06-20T06:58:08.294Z,99.99
2019-06-20T06:59:08.301Z,99.99
2019-06-20T07:00:08.294Z,99.99
2019-06-20T07:01:10.297Z,99.99
2019-06-20T07:02:08.300Z,99.99
2019-06-20T07:03:08.305Z,99.99
2019-06-20T07:04:08.309Z,99.99
2019-06-20T07:05:08.311Z,99.99
2019-06-20T07:06:08.312Z,99.99
2019-06-20T07:07:08.317Z,99.99
2019-06-20T07:08:08.315Z,99.99
2019-06-20T07:09:08.316Z,99.99
2019-06-20T07:10:08.321Z,99.99
2019-06-20T07:11:08.324Z,99.99
2019-06-20T07:12:08.338Z,99.99
2019-06-20T07:13:08.328Z,99.99
2019-06-20T07:14:08.331Z,99.99
2019-06-20T07:15:08.337Z,99.99
2019-06-20T07:16:08.336Z,99.99
2019-06-20T07:17:08.337Z,99.99
2019-06-20T07:18:08.342Z,99.99
2019-06-20T07:19:08.341Z,99.99
2019-06-20T07:20:08.348Z,99.99
2019-06-20T07:21:08.345Z,99.99
2019-06-20T07:22:08.344Z,99.99
2019-06-20T07:23:08.349Z,99.99
2019-06-20T07:24:08.351Z,99.99
2019-06-20T07:25:08.358Z,99.99
2019-06-20T07:26:08.358Z,99.99
2019-06-20T07:27:08.360Z,99.99
2019-06-20T07:28:08.373Z,99.99
2019-06-20T07:29:08.360Z,99.99
2019-06-20T07:30:08.361Z,99.99
2019-06-20T07:31:08.365Z,99.99
2019-06-20T07:32:08.365Z,99.99
2019-06-20T07:33:08.370Z,99.99
2019-06-20T07:34:08.374Z,99.99
2019-06-20T07:35:08.372Z,99.99
2019-06-20T07:36:08.388Z,99.99
2019-06-20T07:37:08.382Z,99.99
2019-06-20T07:38:08.376Z,99.99
2019-06-20T07:39:08.384Z,99.99
2019-06-20T07:40:08.383Z,99.99
2019-06-20T07:41:08.388Z,99.99
2019-06-20T07:42:08.384Z,99.99
2019-06-20T07:43:08.387Z,99.99
2019-06-20T07:44:08.389Z,99.99
2019-06-20T07:45:08.393Z,99.99
2019-06-20T07:46:08.396Z,99.99
2019-06-20T07:47:17.624Z,99.99
2019-06-20T07:48:08.403Z,99.99
2019-06-20T07:49:08.403Z,99.99
2019-06-20T07:50:08.407Z,99.99
2019-06-20T07:51:08.408Z,99.99
2019-06-20T07:52:08.409Z,99.99
2019-06-20T07:53:08.414Z,99.99
2019-06-20T07:54:08.416Z,99.99
2019-06-20T07:55:08.417Z,99.99
2019-06-20T07:56:09.508Z,99.99
2019-06-20T07:57:08.423Z,99.99
2019-06-20T07:58:08.427Z,99.99
2019-06-20T07:59:08.433Z,99.99
2019-06-20T08:00:08.427Z,99.99
2019-06-20T08:01:08.429Z,99.99
2019-06-20T08:02:08.438Z,99.99
2019-06-20T08:03:08.441Z,99.99
2019-06-20T08:04:08.443Z,99.99
2019-06-20T08:05:08.441Z,99.99
2019-06-20T08:06:08.442Z,99.99
2019-06-20T08:07:08.446Z,99.99
2019-06-20T08:08:08.448Z,99.99
2019-06-20T08:09:08.475Z,99.99
2019-06-20T08:10:08.458Z,99.99
2019-06-20T08:11:08.457Z,99.99
2019-06-20T08:12:08.457Z,99.99
2019-06-20T08:13:08.461Z,99.99
2019-06-20T08:14:08.463Z,99.99
2019-06-20T08:15:15.029Z,99.99
2019-06-20T08:16:08.471Z,99.99
2019-06-20T08:17:08.476Z,99.99
2019-06-20T08:18:08.475Z,99.99
2019-06-20T08:19:08.477Z,99.99
2019-06-20T08:20:08.483Z,99.99
2019-06-20T08:21:08.552Z,99.99
2019-06-20T08:22:08.487Z,99.99
2019-06-20T08:23:08.487Z,99.99
2019-06-20T08:24:08.491Z,99.99
2019-06-20T08:25:08.500Z,99.99
2019-06-20T08:26:08.494Z,99.99
2019-06-20T08:27:08.498Z,99.99
2019-06-20T08:28:08.502Z,99.99
2019-06-20T08:29:20.129Z,99.99
2019-06-20T08:30:08.504Z,99.99
2019-06-20T08:31:08.514Z,99.99
2019-06-20T08:32:08.517Z,99.99
2019-06-20T08:33:11.969Z,99.99
2019-06-20T08:34:08.522Z,99.99
2019-06-20T08:35:08.521Z,99.99
2019-06-20T08:36:08.528Z,99.99
2019-06-20T08:37:08.524Z,99.99
2019-06-20T08:38:08.531Z,99.99
2019-06-20T08:39:08.543Z,99.99
2019-06-20T08:40:08.535Z,99.99
2019-06-20T08:41:08.549Z,99.99
2019-06-20T08:42:08.544Z,99.99
2019-06-20T08:43:08.546Z,99.99
2019-06-20T08:44:08.556Z,99.99
2019-06-20T08:45:08.553Z,99.99
2019-06-20T08:46:10.359Z,99.99
2019-06-20T08:47:08.560Z,99.99
2019-06-20T08:48:08.565Z,99.99
2019-06-20T08:49:08.581Z,99.99
2019-06-20T08:50:08.569Z,99.99
2019-06-20T08:51:08.572Z,99.99
2019-06-20T08:52:08.579Z,99.99
2019-06-20T08:53:08.580Z,99.99
2019-06-20T08:54:08.582Z,99.99
2019-06-20T08:55:08.583Z,99.99
2019-06-20T08:56:08.596Z,99.99
2019-06-20T08:57:08.606Z,99.99
2019-06-20T08:58:08.598Z,95.81
2019-06-20T08:59:23.440Z,89.58
2019-06-20T09:00:08.605Z,86.42
2019-06-20T09:02:08.613Z,81.50
2019-06-20T09:03:08.626Z,81.01
2019-06-20T09:04:08.690Z,82.37
2019-06-20T09:05:08.625Z,82.70
2019-06-20T09:06:08.629Z,83.39
2019-06-20T09:07:08.634Z,81.56
2019-06-20T09:08:11.382Z,80.62
2019-06-20T09:09:08.644Z,78.20
2019-06-20T09:10:08.664Z,80.54
2019-06-20T09:11:08.655Z,81.09
2019-06-20T09:12:08.657Z,81.46
2019-06-20T09:13:08.661Z,83.75
2019-06-20T09:14:08.666Z,86.29
2019-06-20T09:15:08.670Z,86.60
2019-06-20T09:16:08.680Z,89.90
2019-06-20T09:17:08.694Z,92.24
2019-06-20T09:18:08.685Z,95.39
2019-06-20T09:19:08.688Z,96.84
2019-06-20T09:20:08.695Z,98.93
2019-06-20T09:21:08.699Z,99.99
2019-06-20T09:22:08.704Z,99.99
2019-06-20T09:23:08.707Z,99.99
2019-06-20T09:24:08.723Z,99.99
2019-06-20T09:25:08.729Z,99.99
2019-06-20T09:26:08.763Z,99.99
2019-06-20T09:27:08.729Z,99.99
2019-06-20T09:28:08.729Z,99.99
2019-06-20T09:29:08.730Z,99.99
2019-06-20T09:30:08.736Z,99.99
2019-06-20T09:31:08.747Z,99.99
2019-06-20T09:32:08.743Z,99.99
2019-06-20T09:33:08.743Z,99.99
2019-06-20T09:34:08.775Z,99.99
2019-06-20T09:35:08.763Z,99.99
2019-06-20T09:36:08.756Z,99.99
2019-06-20T09:37:08.765Z,99.99
2019-06-20T09:38:08.779Z,99.99
2019-06-20T09:39:08.768Z,99.99
2019-06-20T09:40:08.769Z,99.99
2019-06-20T09:41:08.773Z,99.99
2019-06-20T09:42:08.780Z,99.99
2019-06-20T09:43:08.798Z,99.99
2019-06-20T09:44:08.785Z,99.99
2019-06-20T09:45:08.787Z,98.30
2019-06-20T09:46:08.798Z,98.88
2019-06-20T09:47:08.798Z,99.07
2019-06-20T09:48:08.802Z,97.23
2019-06-20T09:49:08.804Z,97.42
2019-06-20T09:50:08.806Z,98.00
2019-06-20T09:51:08.816Z,99.17
2019-06-20T09:52:08.816Z,97.42
2019-06-20T09:53:08.820Z,96.16
2019-06-20T09:54:08.849Z,97.56
2019-06-20T09:55:08.827Z,97.18
2019-06-20T09:56:08.869Z,96.50
2019-06-20T09:57:08.838Z,96.50
2019-06-20T09:58:08.841Z,95.24
2019-06-20T09:59:08.850Z,97.13
2019-06-20T10:00:10.600Z,98.68
2019-06-20T10:01:08.856Z,99.55
2019-06-20T10:02:08.860Z,98.10
2019-06-20T10:03:08.870Z,99.17
2019-06-20T10:04:08.867Z,97.56
2019-06-20T10:05:08.968Z,97.38
2019-06-20T10:06:14.007Z,97.56
2019-06-20T10:07:08.883Z,97.18
2019-06-20T10:08:08.879Z,96.45
2019-06-20T10:09:08.885Z,98.20
2019-06-20T10:10:08.899Z,96.64
2019-06-20T10:11:08.892Z,98.25
2019-06-20T10:12:08.903Z,96.31
2019-06-20T10:13:08.903Z,92.71
2019-06-20T10:14:08.911Z,94.65
2019-06-20T10:15:08.913Z,94.75
2019-06-20T10:16:08.916Z,94.56
2019-06-20T10:17:08.920Z,94.41
2019-06-20T10:18:08.926Z,93.68
2019-06-20T10:19:08.931Z,94.02
2019-06-20T10:20:08.990Z,94.51
2019-06-20T10:21:08.939Z,94.46
2019-06-20T10:22:08.942Z,94.36
2019-06-20T10:23:08.949Z,93.38
2019-06-20T10:24:08.954Z,93.00
2019-06-20T10:25:08.962Z,91.20
2019-06-20T10:26:08.962Z,91.83
2019-06-20T10:27:08.968Z,93.58
2019-06-20T10:28:08.974Z,93.38
2019-06-20T10:29:08.979Z,93.10
2019-06-20T10:30:14.254Z,93.63
2019-06-20T10:31:08.987Z,94.41
2019-06-20T10:32:08.992Z,93.15
2019-06-20T10:33:08.998Z,94.31
2019-06-20T10:34:09.001Z,95.48
2019-06-20T10:35:09.005Z,95.57
2019-06-20T10:36:09.029Z,95.04
2019-06-20T10:37:09.017Z,92.61
2019-06-20T10:38:09.022Z,94.75
2019-06-20T10:39:09.029Z,92.42
2019-06-20T10:40:09.028Z,90.48
2019-06-20T10:41:09.033Z,90.00
2019-06-20T10:42:09.039Z,91.45
2019-06-20T10:43:09.045Z,89.80
2019-06-20T10:44:09.051Z,90.09
2019-06-20T10:45:09.056Z,90.38
2019-06-20T10:46:09.057Z,90.24
2019-06-20T10:47:09.060Z,91.21
2019-06-20T10:48:09.069Z,91.21
2019-06-20T10:49:09.068Z,92.61
2019-06-20T10:50:09.075Z,89.41
2019-06-20T10:51:09.079Z,91.25
2019-06-20T10:52:09.083Z,90.92
2019-06-20T10:53:09.091Z,92.47
2019-06-20T10:54:09.092Z,89.66
2019-06-20T10:55:09.100Z,92.96
2019-06-20T10:56:09.103Z,91.41
2019-06-20T10:57:09.104Z,91.70
2019-06-20T10:58:09.112Z,91.79
2019-06-20T10:59:09.118Z,92.18
2019-06-20T11:00:09.117Z,93.10
2019-06-20T11:01:09.122Z,93.20
2019-06-20T11:02:09.132Z,90.04
2019-06-20T11:03:09.139Z,87.71
2019-06-20T11:04:09.139Z,88.19
2019-06-20T11:05:09.141Z,86.58
2019-06-20T11:06:09.167Z,87.95
2019-06-20T11:07:09.156Z,85.61
2019-06-20T11:08:09.151Z,84.64
2019-06-20T11:09:09.160Z,86.72
2019-06-20T11:10:09.170Z,89.59
2019-06-20T11:11:09.173Z,86.77
2019-06-20T11:12:09.178Z,82.82
2019-06-20T11:13:09.177Z,81.61
2019-06-20T11:14:09.181Z,80.83
2019-06-20T11:15:09.191Z,82.39
2019-06-20T11:16:09.193Z,81.41
2019-06-20T11:17:09.199Z,80.21
2019-06-20T11:18:09.204Z,80.99
2019-06-20T11:19:09.211Z,80.99
2019-06-20T11:20:09.213Z,81.67
2019-06-20T11:21:09.214Z,82.74
2019-06-20T11:22:09.221Z,81.48
2019-06-20T11:23:09.224Z,81.86
2019-06-20T11:24:09.228Z,81.09
2019-06-20T11:25:09.237Z,80.85
2019-06-20T11:26:09.237Z,80.85
2019-06-20T11:27:09.243Z,80.69
2019-06-20T11:28:09.248Z,78.91
2019-06-20T11:29:09.252Z,81.63
2019-06-20T11:30:09.268Z,81.96
2019-06-20T11:31:09.264Z,81.92
2019-06-20T11:32:09.269Z,81.09
2019-06-20T11:33:09.274Z,80.69
2019-06-20T11:34:09.275Z,81.53
2019-06-20T11:35:09.280Z,82.21
2019-06-20T11:36:09.302Z,80.11
2019-06-20T11:37:09.303Z,80.11
2019-06-20T11:38:09.294Z,78.94
2019-06-20T11:39:09.300Z,77.10
2019-06-20T11:40:09.302Z,78.75
2019-06-20T11:41:09.306Z,80.69
2019-06-20T11:42:09.314Z,79.43
2019-06-20T11:43:09.316Z,81.02
2019-06-20T11:44:09.324Z,80.54
2019-06-20T11:45:09.334Z,77.43
2019-06-20T11:46:09.332Z,77.72
2019-06-20T11:47:09.335Z,78.59
2019-06-20T11:48:09.341Z,78.15
2019-06-20T11:49:09.349Z,75.58
2019-06-20T11:50:09.363Z,75.87
2019-06-20T11:51:09.360Z,76.75
2019-06-20T11:52:09.421Z,78.01
2019-06-20T11:53:09.371Z,78.01
2019-06-20T11:54:09.373Z,78.20
2019-06-20T11:55:09.377Z,78.69
2019-06-20T11:56:09.462Z,79.57
2019-06-20T11:57:09.457Z,77.72
2019-06-20T11:58:09.393Z,77.14
2019-06-20T11:59:09.397Z,77.62
2019-06-20T12:00:09.401Z,77.87
2019-06-20T12:01:09.408Z,76.42
2019-06-20T12:02:09.421Z,77.29
2019-06-20T12:03:09.417Z,78.42
2019-06-20T12:04:09.579Z,78.03
2019-06-20T12:05:09.429Z,78.52
2019-06-20T12:06:09.434Z,77.84
2019-06-20T12:07:09.439Z,78.48
2019-06-20T12:08:09.450Z,79.88
2019-06-20T12:09:09.447Z,79.10
2019-06-20T12:10:09.452Z,77.41
2019-06-20T12:11:09.459Z,78.61
2019-06-20T12:12:09.463Z,79.88
2019-06-20T12:13:09.470Z,80.21
2019-06-20T12:14:09.494Z,78.56
2019-06-20T12:15:09.478Z,77.10
2019-06-20T12:16:09.482Z,76.71
2019-06-20T12:17:09.486Z,78.27
2019-06-20T12:18:09.492Z,76.81
2019-06-20T12:19:09.497Z,76.90
2019-06-20T12:20:09.501Z,78.42
2019-06-20T12:21:09.507Z,79.43
2019-06-20T12:22:09.512Z,79.24
2019-06-20T12:23:09.523Z,79.04
2019-06-20T12:24:09.519Z,79.66
2019-06-20T12:25:09.545Z,76.75
2019-06-20T12:26:09.533Z,77.14
2019-06-20T12:27:09.537Z,76.81
2019-06-20T12:28:09.541Z,77.82
2019-06-20T12:29:09.557Z,79.57
2019-06-20T12:30:09.550Z,78.79
2019-06-20T12:31:18.845Z,76.88
2019-06-20T12:32:10.116Z,78.34
2019-06-20T12:33:09.567Z,76.35
2019-06-20T12:34:09.571Z,78.25
2019-06-20T12:35:09.578Z,77.14
2019-06-20T12:36:09.581Z,77.82
2019-06-20T12:37:09.588Z,76.75
2019-06-20T12:38:09.599Z,76.22
2019-06-20T12:39:09.605Z,77.48
2019-06-20T12:40:09.605Z,78.52
2019-06-20T12:41:09.606Z,79.20
2019-06-20T12:42:09.657Z,78.71
2019-06-20T12:43:09.615Z,79.00
2019-06-20T12:44:09.620Z,80.46
2019-06-20T12:45:09.631Z,80.46
2019-06-20T12:46:09.634Z,79.59
2019-06-20T12:47:09.635Z,79.30
2019-06-20T12:48:09.716Z,78.03
2019-06-20T12:49:09.647Z,78.61
2019-06-20T12:50:09.650Z,79.33
2019-06-20T12:51:09.669Z,77.97
2019-06-20T12:52:09.665Z,79.08
2019-06-20T12:53:09.666Z,78.27